createdAt,value
2023-05-11T00:00:39.457Z,19.02
2023-05-11T00:03:06.559Z,20.70
2023-05-11T00:05:33.262Z,19.78
2023-05-11T00:07:59.804Z,19.71
2023-05-11T00:10:28.359Z,19.79
2023-05-11T00:12:55.102Z,19.11
2023-05-11T00:15:21.643Z,18.61
2023-05-11T00:17:48.227Z,19.07
2023-05-11T00:20:14.896Z,18.42
2023-05-11T00:22:44.059Z,19.00
2023-05-11T00:25:11.470Z,19.58
2023-05-11T00:27:38.036Z,19.52
2023-05-11T00:30:05.136Z,19.35
2023-05-11T00:32:31.685Z,19.83
2023-05-11T00:34:58.404Z,19.40
2023-05-11T00:37:26.082Z,19.58
2023-05-11T00:39:52.867Z,20.16
2023-05-11T00:42:19.422Z,20.99
2023-05-11T00:44:46.022Z,20.19
2023-05-11T00:47:13.252Z,20.08
2023-05-11T00:49:40.018Z,20.63
2023-05-11T00:52:07.454Z,20.77
2023-05-11T00:54:35.888Z,20.53
2023-05-11T00:57:03.937Z,19.62
2023-05-11T00:59:30.745Z,19.85
2023-05-11T01:01:57.694Z,20.43
2023-05-11T01:04:24.646Z,20.81
2023-05-11T01:07:12.507Z,20.27
2023-05-11T01:10:04.187Z,21.56
2023-05-11T01:12:33.428Z,21.22
2023-05-11T01:15:13.046Z,21.33
2023-05-11T01:18:01.935Z,20.32
2023-05-11T01:20:30.324Z,20.73
2023-05-11T01:23:09.016Z,20.41
2023-05-11T01:26:03.664Z,21.36
2023-05-11T01:29:17.952Z,21.11
2023-05-11T01:31:48.391Z,21.32
2023-05-11T01:34:33.227Z,21.07
2023-05-11T01:37:09.070Z,21.15
2023-05-11T01:39:38.712Z,22.45
2023-05-11T01:42:09.454Z,22.63
2023-05-11T01:44:39.799Z,21.67
2023-05-11T01:47:08.614Z,21.77
2023-05-11T01:49:38.658Z,21.56
2023-05-11T01:52:07.968Z,21.85
2023-05-11T01:54:36.510Z,21.69
2023-05-11T01:57:04.430Z,22.17
2023-05-11T01:59:33.272Z,22.25
2023-05-11T02:02:02.350Z,23.18
2023-05-11T02:04:30.972Z,21.20
2023-05-11T02:06:59.255Z,20.84
2023-05-11T02:09:26.829Z,20.34
2023-05-11T02:11:56.459Z,21.28
2023-05-11T02:14:24.973Z,20.39
2023-05-11T02:16:53.132Z,20.37
2023-05-11T02:19:21.226Z,21.57
2023-05-11T02:21:49.784Z,22.17
2023-05-11T02:24:18.249Z,23.90
2023-05-11T02:26:44.927Z,23.91
2023-05-11T02:29:11.525Z,24.36
2023-05-11T02:31:44.154Z,24.74
2023-05-11T02:34:20.844Z,21.82
2023-05-11T02:36:54.357Z,26.01
2023-05-11T02:39:24.400Z,26.08
2023-05-11T02:41:56.633Z,26.41
2023-05-11T02:44:28.626Z,27.15
2023-05-11T02:46:56.350Z,26.69
2023-05-11T02:49:25.881Z,25.31
2023-05-11T02:51:55.345Z,26.11
2023-05-11T02:54:24.531Z,25.70
2023-05-11T02:56:51.820Z,26.28
2023-05-11T02:59:18.811Z,26.42
2023-05-11T03:01:46.180Z,25.97
2023-05-11T03:04:13.274Z,25.93
2023-05-11T03:06:39.847Z,26.10
2023-05-11T03:09:09.247Z,25.40
2023-05-11T03:11:37.627Z,24.44
2023-05-11T03:14:04.263Z,25.58
2023-05-11T03:16:31.673Z,25.96
2023-05-11T03:19:01.305Z,26.24
2023-05-11T03:21:28.615Z,26.14
2023-05-11T03:23:57.900Z,25.79
2023-05-11T03:26:27.619Z,24.84
2023-05-11T03:28:56.383Z,23.36
2023-05-11T03:31:22.922Z,24.65
2023-05-11T03:33:49.495Z,24.80
2023-05-11T03:36:16.269Z,24.43
2023-05-11T03:38:46.595Z,24.68
2023-05-11T03:41:17.332Z,25.41
2023-05-11T03:43:45.750Z,25.46
2023-05-11T03:46:13.938Z,24.45
2023-05-11T03:48:42.580Z,23.85
2023-05-11T03:51:10.991Z,25.27
2023-05-11T03:53:38.501Z,25.28
2023-05-11T03:56:07.333Z,23.29
2023-05-11T03:58:40.751Z,22.02
2023-05-11T04:01:10.949Z,22.28
2023-05-11T04:03:49.132Z,23.58
2023-05-11T04:06:17.259Z,23.53
2023-05-11T04:08:44.541Z,23.36
2023-05-11T04:11:11.567Z,23.70
2023-05-11T04:13:38.354Z,23.40
2023-05-11T04:16:05.463Z,23.71
2023-05-11T04:18:32.203Z,22.62
2023-05-11T04:20:58.804Z,24.15
2023-05-11T04:23:25.345Z,23.65
2023-05-11T04:25:55.590Z,24.75
2023-05-11T04:28:23.904Z,23.56
2023-05-11T04:30:57.646Z,24.16
2023-05-11T04:33:24.913Z,24.00
2023-05-11T04:35:52.709Z,23.54
2023-05-11T04:38:19.887Z,23.96
2023-05-11T04:40:47.943Z,23.85
2023-05-11T04:43:15.144Z,23.88
2023-05-11T04:45:41.885Z,23.01
2023-05-11T04:48:08.493Z,23.72
2023-05-11T04:50:36.732Z,23.58
2023-05-11T04:53:03.269Z,23.03
2023-05-11T04:55:29.816Z,23.95
2023-05-11T04:57:56.318Z,24.23
2023-05-11T05:00:23.051Z,25.94
2023-05-11T05:02:50.903Z,25.45
2023-05-11T05:05:18.163Z,25.66
2023-05-11T05:07:45.544Z,26.05
2023-05-11T05:10:12.801Z,26.60
2023-05-11T05:12:39.523Z,26.17
2023-05-11T05:15:06.756Z,24.91
2023-05-11T05:17:33.697Z,26.40
2023-05-11T05:20:00.377Z,26.09
2023-05-11T05:22:27.027Z,26.64
2023-05-11T05:24:53.625Z,27.39
2023-05-11T05:27:20.148Z,27.32
2023-05-11T05:29:46.741Z,27.56
2023-05-11T05:32:13.400Z,28.00
2023-05-11T05:34:39.927Z,28.46
2023-05-11T05:37:06.468Z,29.27
2023-05-11T05:39:32.986Z,29.12
2023-05-11T05:41:59.564Z,29.03
2023-05-11T05:44:26.119Z,28.74
2023-05-11T05:46:52.633Z,30.28
2023-05-11T05:49:19.177Z,30.43
2023-05-11T05:51:46.013Z,30.62
2023-05-11T05:54:13.330Z,28.80
2023-05-11T05:56:40.862Z,28.23
2023-05-11T05:59:08.883Z,28.17
2023-05-11T06:01:36.035Z,25.83
2023-05-11T06:04:02.787Z,25.09
2023-05-11T06:06:29.475Z,24.74
2023-05-11T06:08:56.069Z,25.01
2023-05-11T06:11:23.005Z,24.26
2023-05-11T06:13:49.564Z,24.20
2023-05-11T06:16:16.349Z,23.93
2023-05-11T06:18:42.895Z,23.78
2023-05-11T06:21:09.458Z,23.34
2023-05-11T06:23:36.013Z,22.15
2023-05-11T06:26:02.631Z,22.60
2023-05-11T06:28:29.935Z,23.53
2023-05-11T06:30:59.146Z,22.13
2023-05-11T06:33:26.087Z,21.43
2023-05-11T06:35:52.608Z,20.75
2023-05-11T06:38:19.120Z,21.90
2023-05-11T06:40:45.694Z,20.84
2023-05-11T06:43:12.275Z,20.48
2023-05-11T06:45:38.963Z,20.11
2023-05-11T06:48:06.590Z,19.00
2023-05-11T06:50:33.386Z,19.56
2023-05-11T06:52:59.956Z,19.94
2023-05-11T06:55:27.767Z,19.99
2023-05-11T06:57:54.380Z,19.56
2023-05-11T07:00:21.136Z,19.38
2023-05-11T07:02:47.834Z,19.29
2023-05-11T07:05:14.440Z,19.56
2023-05-11T07:07:41.270Z,19.62
2023-05-11T07:10:08.498Z,19.91
2023-05-11T07:12:35.397Z,19.75
2023-05-11T07:15:01.910Z,20.40
2023-05-11T07:17:28.626Z,20.14
2023-05-11T07:19:55.535Z,20.89
2023-05-11T07:22:22.139Z,21.26
2023-05-11T07:24:48.712Z,22.25
2023-05-11T07:27:15.341Z,22.26
2023-05-11T07:29:41.924Z,19.21
2023-05-11T07:32:08.571Z,16.48
2023-05-11T07:34:35.146Z,17.26
2023-05-11T07:37:01.805Z,18.04
2023-05-11T07:39:28.422Z,17.11
2023-05-11T07:41:54.999Z,16.53
2023-05-11T07:44:21.521Z,15.61
2023-05-11T07:46:48.178Z,14.01
2023-05-11T07:49:20.604Z,11.70
2023-05-11T07:51:52.721Z,12.00
2023-05-11T07:54:21.012Z,12.10
2023-05-11T07:56:48.385Z,11.13
2023-05-11T07:59:14.924Z,11.88
2023-05-11T08:01:41.571Z,12.80
2023-05-11T08:04:08.135Z,12.57
2023-05-11T08:06:34.648Z,12.75
2023-05-11T08:09:01.174Z,12.33
2023-05-11T08:11:28.397Z,12.15
2023-05-11T08:13:54.946Z,12.31
2023-05-11T08:16:21.844Z,13.33
2023-05-11T08:18:48.483Z,13.45
2023-05-11T08:21:15.118Z,13.13
2023-05-11T08:23:43.427Z,13.12
2023-05-11T08:26:11.137Z,12.94
2023-05-11T08:28:37.705Z,12.06
2023-05-11T08:31:05.554Z,12.77
2023-05-11T08:33:38.372Z,12.60
2023-05-11T08:36:06.765Z,11.79
2023-05-11T08:38:34.747Z,11.42
2023-05-11T08:41:01.971Z,11.85
2023-05-11T08:43:29.241Z,12.33
2023-05-11T08:46:01.587Z,11.59
2023-05-11T08:48:29.242Z,12.30
2023-05-11T08:50:56.022Z,11.46
2023-05-11T08:53:23.085Z,11.10
2023-05-11T08:55:51.472Z,11.09
2023-05-11T08:58:21.077Z,11.60
2023-05-11T09:00:49.550Z,12.73
2023-05-11T09:03:17.780Z,12.14
2023-05-11T09:05:46.903Z,11.92
2023-05-11T09:08:15.632Z,11.84
2023-05-11T09:10:43.581Z,20.83
2023-05-11T09:13:10.946Z,18.53
2023-05-11T09:15:38.353Z,13.95
2023-05-11T09:18:05.563Z,11.71
2023-05-11T09:20:33.517Z,11.08
2023-05-11T09:23:01.345Z,11.33
2023-05-11T09:25:34.777Z,11.61
2023-05-11T09:28:01.371Z,11.38
2023-05-11T09:30:28.282Z,11.54
2023-05-11T09:32:57.046Z,11.07
2023-05-11T09:35:26.624Z,11.50
2023-05-11T09:46:22.707Z,18.03
2023-05-11T09:48:59.876Z,16.02
2023-05-11T09:51:32.375Z,15.81
2023-05-11T09:54:00.742Z,14.90
2023-05-11T09:56:50.216Z,17.01
2023-05-11T09:59:36.514Z,16.46
2023-05-11T10:02:27.304Z,15.65
2023-05-11T10:04:56.450Z,16.30
2023-05-11T10:07:30.257Z,15.95
2023-05-11T10:10:02.081Z,16.09
2023-05-11T10:12:30.574Z,16.12
2023-05-11T10:15:06.084Z,16.45
2023-05-11T10:17:33.380Z,15.27
2023-05-11T10:20:01.626Z,15.51
2023-05-11T10:22:29.412Z,18.99
2023-05-11T10:27:27.894Z,24.76
2023-05-11T10:29:54.663Z,24.65
2023-05-11T10:32:22.464Z,24.28
2023-05-11T10:34:50.576Z,23.51
2023-05-11T10:37:17.827Z,24.00
2023-05-11T10:39:48.391Z,23.70
2023-05-11T10:42:23.475Z,21.56
2023-05-11T10:45:15.012Z,21.02
2023-05-11T10:47:55.406Z,18.38
2023-05-11T10:50:43.896Z,17.09
2023-05-11T10:53:48.411Z,17.15
2023-05-11T10:56:36.720Z,16.20
2023-05-11T10:59:21.882Z,15.37
2023-05-11T11:01:52.359Z,15.76
2023-05-11T11:04:20.445Z,14.56
2023-05-11T11:06:47.190Z,14.31
2023-05-11T11:09:15.931Z,14.04
2023-05-11T11:11:47.790Z,13.83
2023-05-11T11:14:15.754Z,13.95
2023-05-11T11:17:14.445Z,13.28
2023-05-11T11:19:41.012Z,12.31
2023-05-11T11:22:41.626Z,12.76
2023-05-11T11:25:09.664Z,12.00
2023-05-11T11:27:45.256Z,11.52
2023-05-11T11:30:19.264Z,11.36
2023-05-11T11:32:51.933Z,10.85
2023-05-11T11:35:41.346Z,12.04
2023-05-11T11:38:10.573Z,11.89
2023-05-11T11:40:57.657Z,11.86
2023-05-11T11:43:28.448Z,11.98
2023-05-11T11:45:59.614Z,11.93
2023-05-11T11:48:36.779Z,11.91
2023-05-11T11:51:11.349Z,13.08
2023-05-11T11:53:38.231Z,13.67
2023-05-11T12:03:05.387Z,14.60
2023-05-11T12:05:37.695Z,15.89
2023-05-11T12:08:07.244Z,15.04
2023-05-11T12:10:33.850Z,14.53
2023-05-11T12:13:01.053Z,14.44
2023-05-11T12:15:31.190Z,14.42
2023-05-11T12:17:57.980Z,14.21
2023-05-11T12:20:25.370Z,14.35
2023-05-11T12:22:52.090Z,12.77
2023-05-11T12:25:20.237Z,11.82
2023-05-11T12:27:52.552Z,11.59
2023-05-11T12:30:20.866Z,11.76
2023-05-11T12:32:47.821Z,12.02
2023-05-11T12:35:16.423Z,11.60
2023-05-11T12:37:44.101Z,11.79
2023-05-11T12:40:11.535Z,11.19
2023-05-11T12:42:38.096Z,11.36
2023-05-11T12:45:08.356Z,11.85
2023-05-11T12:47:35.646Z,12.06
2023-05-11T12:50:03.410Z,13.91
2023-05-11T12:52:30.015Z,13.85
2023-05-11T12:55:00.257Z,13.66
2023-05-11T12:57:29.663Z,14.46
2023-05-11T13:00:12.565Z,14.82
2023-05-11T13:02:50.181Z,15.30
2023-05-11T13:05:19.447Z,15.63
2023-05-11T13:07:46.632Z,15.19
2023-05-11T13:10:14.081Z,15.20
2023-05-11T13:12:51.744Z,15.06
2023-05-11T13:15:20.404Z,15.44
2023-05-11T13:17:48.207Z,15.38
2023-05-11T13:20:27.145Z,14.83
2023-05-11T13:23:11.677Z,14.89
2023-05-11T13:25:49.900Z,14.31
2023-05-11T13:28:18.530Z,10.98
2023-05-11T13:30:46.062Z,4.68
2023-05-11T13:33:12.949Z,3.98
2023-05-11T13:35:44.021Z,3.75
2023-05-11T13:38:11.634Z,3.55
2023-05-11T13:40:38.492Z,3.87
2023-05-11T13:43:05.222Z,4.03
2023-05-11T13:45:31.821Z,4.00
2023-05-11T13:47:58.440Z,4.05
2023-05-11T13:50:26.137Z,4.40
2023-05-11T13:52:53.315Z,4.43
2023-05-11T13:55:21.080Z,4.26
2023-05-11T13:57:48.000Z,4.37
2023-05-11T14:00:15.241Z,4.71
2023-05-11T14:02:41.955Z,4.72
2023-05-11T14:05:09.081Z,4.67
2023-05-11T14:07:47.042Z,5.19
2023-05-11T14:10:15.476Z,4.83
2023-05-11T14:12:42.008Z,4.96
2023-05-11T14:15:09.132Z,4.73
2023-05-11T14:17:35.858Z,4.63
2023-05-11T14:20:03.008Z,4.50
2023-05-11T14:22:29.593Z,4.79
2023-05-11T14:24:56.280Z,4.57
2023-05-11T14:27:23.123Z,4.32
2023-05-11T14:29:51.909Z,4.41
2023-05-11T14:32:19.416Z,4.43
2023-05-11T14:34:46.121Z,4.89
2023-05-11T14:37:13.234Z,5.00
2023-05-11T14:39:41.015Z,4.72
2023-05-11T14:42:07.867Z,4.96
2023-05-11T14:44:34.447Z,5.32
2023-05-11T14:47:01.097Z,5.16
2023-05-11T14:49:27.701Z,5.15
2023-05-11T14:51:54.317Z,5.37
2023-05-11T14:54:20.911Z,5.87
2023-05-11T14:56:53.431Z,5.95
2023-05-11T14:59:20.874Z,6.52
2023-05-11T15:01:47.929Z,5.99
2023-05-11T15:04:15.735Z,5.68
2023-05-11T15:06:43.255Z,5.56
2023-05-11T15:09:10.122Z,5.71
2023-05-11T15:11:39.204Z,5.71
2023-05-11T15:14:07.011Z,6.47
2023-05-11T15:16:33.740Z,6.66
2023-05-11T15:19:00.548Z,6.97
2023-05-11T15:21:27.336Z,6.98
2023-05-11T15:23:54.285Z,7.32
2023-05-11T15:26:22.034Z,7.42
2023-05-11T15:28:48.775Z,7.52
2023-05-11T15:31:15.681Z,7.12
2023-05-11T15:33:42.861Z,6.83
2023-05-11T15:36:14.773Z,6.90
2023-05-11T15:38:42.737Z,6.49
2023-05-11T15:41:09.400Z,5.93
2023-05-11T15:43:36.012Z,5.23
2023-05-11T15:46:03.803Z,4.96
2023-05-11T15:48:30.701Z,4.49
2023-05-11T15:50:59.915Z,3.43
2023-05-11T15:53:26.797Z,3.37
2023-05-11T15:55:55.507Z,3.84
2023-05-11T15:58:22.848Z,3.29
2023-05-11T16:00:49.511Z,3.82
2023-05-11T16:03:16.471Z,4.20
2023-05-11T16:05:43.259Z,4.55
2023-05-11T16:08:09.838Z,5.16
2023-05-11T16:10:36.537Z,5.33
2023-05-11T16:13:03.069Z,4.78
2023-05-11T16:15:31.120Z,5.45
2023-05-11T16:17:58.467Z,5.50
2023-05-11T16:20:25.150Z,4.93
2023-05-11T16:22:51.679Z,4.29
2023-05-11T16:25:18.381Z,3.95
2023-05-11T16:27:44.893Z,4.04
2023-05-11T16:30:23.027Z,3.76
2023-05-11T16:32:51.563Z,4.14
2023-05-11T16:35:18.408Z,3.90
2023-05-11T16:37:45.029Z,3.91
2023-05-11T16:40:11.987Z,4.11
2023-05-11T16:42:38.532Z,4.40
2023-05-11T16:45:06.302Z,4.66
2023-05-11T16:47:32.949Z,4.37
2023-05-11T16:49:59.502Z,4.93
2023-05-11T16:52:25.999Z,4.70
2023-05-11T16:54:52.714Z,5.31
2023-05-11T16:57:19.324Z,5.78
2023-05-11T16:59:45.898Z,5.55
2023-05-11T17:02:12.623Z,5.36
2023-05-11T17:04:39.191Z,5.19
2023-05-11T17:07:08.531Z,5.54
2023-05-11T17:09:35.145Z,5.72
2023-05-11T17:12:07.461Z,5.69
2023-05-11T17:14:34.057Z,5.20
2023-05-11T17:17:00.699Z,3.29
2023-05-11T17:19:27.367Z,2.94
2023-05-11T17:21:53.938Z,2.84
2023-05-11T17:24:21.387Z,2.66
2023-05-11T17:26:48.721Z,2.92
2023-05-11T17:29:16.480Z,2.71
2023-05-11T17:31:43.414Z,2.64
2023-05-11T17:34:10.677Z,2.41
2023-05-11T17:36:37.479Z,2.39
2023-05-11T17:39:05.041Z,2.34
2023-05-11T17:41:31.923Z,2.39
2023-05-11T17:43:58.512Z,2.29
2023-05-11T17:46:25.464Z,2.46
2023-05-11T17:48:52.935Z,2.47
2023-05-11T17:51:20.297Z,2.62
2023-05-11T17:53:47.232Z,2.69
2023-05-11T17:56:13.840Z,2.40
2023-05-11T17:58:40.434Z,2.49
2023-05-11T18:01:12.567Z,2.59
2023-05-11T18:03:39.753Z,2.71
2023-05-11T18:06:06.836Z,2.57
2023-05-11T18:08:34.110Z,3.72
2023-05-11T18:11:00.729Z,5.69
2023-05-11T18:13:28.625Z,6.69
2023-05-11T18:16:01.000Z,6.64
2023-05-11T18:18:27.967Z,6.54
2023-05-11T18:20:54.920Z,6.25
2023-05-11T18:23:21.553Z,6.75
2023-05-11T18:25:48.364Z,6.47
2023-05-11T18:28:15.009Z,7.08
2023-05-11T18:30:41.552Z,7.31
2023-05-11T18:33:08.306Z,7.68
2023-05-11T18:35:35.133Z,8.03
2023-05-11T18:38:04.064Z,8.10
2023-05-11T18:40:30.645Z,8.25
2023-05-11T18:42:57.153Z,8.76
2023-05-11T18:45:23.762Z,8.86
2023-05-11T18:47:51.015Z,8.24
2023-05-11T18:50:17.785Z,8.11
2023-05-11T18:52:44.487Z,7.99
2023-05-11T18:55:11.070Z,7.62
2023-05-11T18:57:39.385Z,7.69
2023-05-11T19:00:06.661Z,7.02
2023-05-11T19:02:33.905Z,6.45
2023-05-11T19:05:01.246Z,6.45
2023-05-11T19:07:28.478Z,6.81
2023-05-11T19:09:55.252Z,7.30
2023-05-11T19:12:22.157Z,7.79
2023-05-11T19:14:48.730Z,8.30
2023-05-11T19:17:15.437Z,8.76
2023-05-11T19:19:41.995Z,8.65
2023-05-11T19:22:09.308Z,8.20
2023-05-11T19:24:36.122Z,8.69
2023-05-11T19:27:07.351Z,8.88
2023-05-11T19:29:35.325Z,8.75
2023-05-11T19:32:02.573Z,9.08
2023-05-11T19:34:29.142Z,9.18
2023-05-11T19:36:55.705Z,9.63
2023-05-11T19:39:22.342Z,9.68
2023-05-11T19:41:48.919Z,10.34
2023-05-11T19:44:15.551Z,10.92
2023-05-11T19:46:46.612Z,11.22
2023-05-11T19:49:14.937Z,11.42
2023-05-11T19:51:41.654Z,11.43
2023-05-11T19:54:08.165Z,11.62
2023-05-11T19:56:34.681Z,11.40
2023-05-11T19:59:02.582Z,11.27
2023-05-11T20:01:29.174Z,11.19
2023-05-11T20:03:56.294Z,10.70
2023-05-11T20:06:23.289Z,10.84
2023-05-11T20:08:51.533Z,10.53
2023-05-11T20:11:18.246Z,10.94
2023-05-11T20:13:45.412Z,10.94
2023-05-11T20:16:12.681Z,10.67
2023-05-11T20:18:39.227Z,10.44
2023-05-11T20:21:06.231Z,10.20
2023-05-11T20:23:33.120Z,10.19
2023-05-11T20:26:00.883Z,10.01
2023-05-11T20:28:28.006Z,10.28
2023-05-11T20:30:56.194Z,9.31
2023-05-11T20:35:53.536Z,6.91
2023-05-11T20:38:20.298Z,5.93
2023-05-11T20:40:47.009Z,5.16
2023-05-11T20:43:14.834Z,5.03
2023-05-11T20:45:41.984Z,5.14
2023-05-11T20:48:08.765Z,4.78
2023-05-11T20:50:35.480Z,5.24
2023-05-11T20:53:02.117Z,5.61
2023-05-11T20:55:28.674Z,5.43
2023-05-11T20:57:55.234Z,5.91
2023-05-11T21:00:22.038Z,6.03
2023-05-11T21:02:49.216Z,6.17
2023-05-11T21:05:15.895Z,6.41
2023-05-11T21:07:42.408Z,6.80
2023-05-11T21:10:11.544Z,7.14
2023-05-11T21:12:38.721Z,7.63
2023-05-11T21:15:06.827Z,7.59
2023-05-11T21:17:33.652Z,8.27
2023-05-11T21:20:00.404Z,8.36
2023-05-11T21:22:27.105Z,8.21
2023-05-11T21:24:53.721Z,8.01
2023-05-11T21:27:20.275Z,8.39
2023-05-11T21:29:48.055Z,8.49
2023-05-11T21:32:14.604Z,8.55
2023-05-11T21:34:41.217Z,8.67
2023-05-11T21:37:08.022Z,8.75
2023-05-11T21:39:34.586Z,8.07
2023-05-11T21:42:02.686Z,8.13
2023-05-11T21:44:29.199Z,7.93
2023-05-11T21:46:55.837Z,7.63
2023-05-11T21:49:22.422Z,7.50
2023-05-11T21:51:50.083Z,7.72
2023-05-11T21:54:16.651Z,7.64
2023-05-11T21:56:43.171Z,7.69
2023-05-11T21:59:09.757Z,7.68
2023-05-11T22:01:36.331Z,7.76
2023-05-11T22:04:03.021Z,7.86
2023-05-11T22:06:29.687Z,8.41
2023-05-11T22:08:56.225Z,8.42
2023-05-11T22:11:22.787Z,8.61
2023-05-11T22:13:49.454Z,8.67
2023-05-11T22:16:16.153Z,9.44
2023-05-11T22:18:42.828Z,9.53
2023-05-11T22:21:09.440Z,9.84
2023-05-11T22:23:36.513Z,9.81
2023-05-11T22:26:03.658Z,9.58
2023-05-11T22:28:30.427Z,10.03
2023-05-11T22:30:58.810Z,10.33
2023-05-11T22:33:25.478Z,10.01
2023-05-11T22:35:52.019Z,9.98
2023-05-11T22:38:18.565Z,9.69
2023-05-11T22:40:45.181Z,9.78
2023-05-11T22:43:11.724Z,9.78
2023-05-11T22:45:38.294Z,9.34
2023-05-11T22:48:05.365Z,9.08
2023-05-11T22:50:31.976Z,8.30
2023-05-11T22:52:58.582Z,8.38
2023-05-11T22:55:25.221Z,8.55
2023-05-11T22:57:52.208Z,8.94
2023-05-11T23:00:19.360Z,8.59
2023-05-11T23:02:46.426Z,8.84
2023-05-11T23:05:13.621Z,8.83
2023-05-11T23:07:40.302Z,8.35
2023-05-11T23:10:07.453Z,8.53
2023-05-11T23:12:34.254Z,7.97
2023-05-11T23:15:00.932Z,8.11
2023-05-11T23:17:27.661Z,8.01
2023-05-11T23:19:54.301Z,7.78
2023-05-11T23:22:20.838Z,7.32
2023-05-11T23:24:47.389Z,7.19
2023-05-11T23:27:14.054Z,6.96
2023-05-11T23:29:40.729Z,6.80
2023-05-11T23:32:07.321Z,6.65
2023-05-11T23:34:33.852Z,6.34
2023-05-11T23:37:00.401Z,6.56
2023-05-11T23:39:26.972Z,6.74
2023-05-11T23:41:53.532Z,7.43
2023-05-11T23:44:20.255Z,6.87
2023-05-11T23:46:46.931Z,6.91
2023-05-11T23:49:13.521Z,7.03
2023-05-11T23:51:40.092Z,7.14
2023-05-11T23:54:06.925Z,7.34
2023-05-11T23:56:33.787Z,7.32
2023-05-11T23:59:00.352Z,7.34
